Time;durP1;ratioP1;P1;durP2;ratioP2;P2;SDS_P1;SDS_P2;PMS_P1;PMS_P2;Temp;Humidity;BMP_temperature;BMP_pressure;BME280_temperature;BME280_humidity;BME280_pressure;Samples;Min_cycle;Max_cycle;Signal;HPM_P1;HPM_P2
2023/02/14 00:00:28;;;;;;;1.60;1.30;;;7.80;98.20;;;;;;5084838;28;20457;-74
2023/02/14 00:02:56;;;;;;;1.60;1.30;;;7.80;98.20;;;;;;5064487;28;20481;-74
2023/02/14 00:05:23;;;;;;;1.60;1.20;;;7.80;98.20;;;;;;5083685;28;20465;-73
2023/02/14 00:07:49;;;;;;;1.60;1.30;;;7.80;98.20;;;;;;5061946;28;20512;-74
2023/02/14 00:10:17;;;;;;;1.60;1.20;;;7.80;98.20;;;;;;5084203;28;21101;-74
2023/02/14 00:12:45;;;;;;;1.53;1.20;;;7.80;98.20;;;;;;5065018;28;20530;-75
2023/02/14 00:15:23;;;;;;;1.57;1.20;;;7.70;98.20;;;;;;5065080;28;20662;-73
2023/02/14 00:17:51;;;;;;;2.13;1.93;;;7.70;98.20;;;;;;5063876;28;20944;-73
2023/02/14 00:20:18;;;;;;;1.60;1.20;;;7.70;98.20;;;;;;5079665;28;20457;-75
2023/02/14 00:22:45;;;;;;;1.53;1.27;;;7.60;98.20;;;;;;5063627;28;20541;-74
2023/02/14 00:25:13;;;;;;;1.60;1.30;;;7.60;98.20;;;;;;5078523;28;20475;-74
2023/02/14 00:27:40;;;;;;;1.57;1.20;;;7.60;98.20;;;;;;5059970;28;20488;-74
2023/02/14 00:30:11;;;;;;;1.60;1.30;;;7.60;98.20;;;;;;5076534;28;20457;-74
2023/02/14 00:32:39;;;;;;;1.57;1.20;;;7.50;98.20;;;;;;5062607;28;20497;-74
2023/02/14 00:35:06;;;;;;;1.53;1.20;;;7.50;98.20;;;;;;5077193;28;20723;-74
2023/02/14 00:37:34;;;;;;;1.60;1.50;;;7.50;98.20;;;;;;5070787;28;20484;-74
2023/02/14 00:40:01;;;;;;;1.53;1.20;;;7.50;98.20;;;;;;5082855;28;20469;-74
2023/02/14 00:42:27;;;;;;;1.57;1.20;;;7.40;98.20;;;;;;5066976;28;20496;-74
2023/02/14 00:44:54;;;;;;;1.53;1.20;;;7.40;98.20;;;;;;5081818;28;20457;-74
2023/02/14 00:47:23;;;;;;;1.57;1.20;;;7.40;98.20;;;;;;5066100;28;21047;-74
2023/02/14 00:49:50;;;;;;;1.60;1.33;;;7.40;98.20;;;;;;5074495;28;20464;-71
2023/02/14 00:52:17;;;;;;;1.60;1.30;;;7.30;98.20;;;;;;5067138;28;20984;-72
2023/02/14 00:54:44;;;;;;;1.60;1.40;;;7.30;98.20;;;;;;5075246;28;20466;-73
2023/02/14 00:57:11;;;;;;;1.60;1.30;;;7.30;98.20;;;;;;5059498;28;20976;-72
2023/02/14 00:59:38;;;;;;;1.50;1.20;;;7.30;98.20;;;;;;5076294;28;21029;-72
2023/02/14 01:02:05;;;;;;;2.00;1.50;;;7.30;98.20;;;;;;5064710;28;20512;-72
2023/02/14 01:04:33;;;;;;;1.53;1.20;;;7.30;98.20;;;;;;5083975;28;20965;-72
2023/02/14 01:07:00;;;;;;;1.60;1.30;;;7.20;98.20;;;;;;5061141;28;20555;-74
2023/02/14 01:09:27;;;;;;;2.10;1.93;;;7.20;98.20;;;;;;5070508;28;20540;-74
2023/02/14 01:11:54;;;;;;;1.60;1.20;;;7.20;98.20;;;;;;5064087;28;20848;-74
2023/02/14 01:14:21;;;;;;;1.60;1.40;;;7.20;98.20;;;;;;5082658;28;20472;-74
2023/02/14 01:16:48;;;;;;;1.57;1.23;;;7.10;98.20;;;;;;5069220;28;20484;-74
2023/02/14 01:19:16;;;;;;;1.57;1.23;;;7.10;98.20;;;;;;5084056;28;20529;-75
2023/02/14 01:21:44;;;;;;;2.07;1.90;;;7.10;98.20;;;;;;5058634;28;20478;-74
2023/02/14 01:24:12;;;;;;;1.60;1.30;;;7.00;98.20;;;;;;5077749;28;20492;-74
2023/02/14 01:26:39;;;;;;;1.60;1.30;;;7.00;98.20;;;;;;5066501;28;20902;-75
2023/02/14 01:29:07;;;;;;;1.60;1.30;;;7.00;98.20;;;;;;5072889;28;20461;-74
2023/02/14 01:31:35;;;;;;;1.60;1.40;;;7.00;98.20;;;;;;5064067;28;20505;-74
2023/02/14 01:34:03;;;;;;;1.60;1.40;;;6.90;98.20;;;;;;5079295;28;20544;-74
2023/02/14 01:36:32;;;;;;;1.60;1.30;;;6.90;98.20;;;;;;5056031;28;20490;-74
2023/02/14 01:39:02;;;;;;;1.60;1.33;;;6.90;98.20;;;;;;5084564;28;20552;-74
2023/02/14 01:41:32;;;;;;;1.53;1.20;;;6.90;98.20;;;;;;5073028;28;20566;-74
2023/02/14 01:44:01;;;;;;;1.50;1.20;;;6.80;98.20;;;;;;5078874;28;20549;-74
2023/02/14 01:46:30;;;;;;;1.60;1.30;;;6.80;98.20;;;;;;5075654;28;21113;-74
2023/02/14 01:49:02;;;;;;;1.53;1.20;;;6.70;98.20;;;;;;5077401;28;20469;-74
2023/02/14 01:51:32;;;;;;;1.60;1.30;;;6.70;98.20;;;;;;5060677;28;20473;-74
2023/02/14 01:54:01;;;;;;;1.57;1.20;;;6.70;98.20;;;;;;5085523;28;20458;-74
2023/02/14 01:56:34;;;;;;;1.57;1.20;;;6.70;98.20;;;;;;5064264;28;20486;-74
2023/02/14 01:59:05;;;;;;;1.60;1.30;;;6.70;98.20;;;;;;5086358;28;20465;-74
2023/02/14 02:01:32;;;;;;;1.60;1.23;;;6.70;98.20;;;;;;5072290;28;20477;-74
2023/02/14 02:04:03;;;;;;;1.60;1.30;;;6.60;98.20;;;;;;5075461;28;20527;-74
2023/02/14 02:06:35;;;;;;;1.60;1.33;;;6.60;98.20;;;;;;5067202;28;20484;-74
2023/02/14 02:09:17;;;;;;;1.60;1.30;;;6.60;98.20;;;;;;5086380;28;20458;-74
2023/02/14 02:11:44;;;;;;;1.60;1.37;;;6.60;98.20;;;;;;5069644;28;20496;-74
2023/02/14 02:14:15;;;;;;;3.10;2.90;;;6.50;98.20;;;;;;5073872;28;20513;-74
2023/02/14 02:17:03;;;;;;;2.57;2.33;;;6.50;98.20;;;;;;5062465;28;20484;-74
2023/02/14 02:20:14;;;;;;;3.83;3.50;;;6.50;98.20;;;;;;5083801;28;20453;-74
2023/02/14 02:23:07;;;;;;;1.60;1.30;;;6.40;98.20;;;;;;5066738;28;20994;-74
2023/02/14 02:26:00;;;;;;;1.60;1.30;;;6.40;98.20;;;;;;5080307;28;20457;-74
2023/02/14 02:28:55;;;;;;;2.10;1.63;;;6.30;98.20;;;;;;5039296;28;20479;-74
2023/02/14 02:31:43;;;;;;;1.60;1.40;;;6.30;98.20;;;;;;5052120;28;20800;-74
2023/02/14 02:34:49;;;;;;;1.60;1.47;;;6.30;98.20;;;;;;5054714;28;20464;-74
2023/02/14 02:37:34;;;;;;;1.60;1.40;;;6.30;98.20;;;;;;5051313;28;21068;-74
2023/02/14 02:40:17;;;;;;;1.60;1.20;;;6.30;98.20;;;;;;5067999;28;20492;-74
2023/02/14 02:42:53;;;;;;;1.60;1.30;;;6.30;98.20;;;;;;5063350;28;20892;-75
2023/02/14 02:45:28;;;;;;;1.60;1.47;;;6.30;98.20;;;;;;5062272;28;20464;-74
2023/02/14 02:48:06;;;;;;;1.60;1.30;;;6.20;98.20;;;;;;5061470;28;20770;-74
2023/02/14 02:53:34;;;;;;;1.53;1.30;;;6.20;98.20;;;;;;5046320;28;20488;-73
2023/02/14 02:59:03;;;;;;;1.60;1.30;;;6.20;98.20;;;;;;5058692;28;20486;-74
2023/02/14 03:01:35;;;;;;;1.60;1.30;;;6.20;98.20;;;;;;5062522;28;20484;-74
2023/02/14 03:06:51;;;;;;;1.60;1.30;;;6.10;98.20;;;;;;5060297;28;20479;-74
2023/02/14 03:09:55;;;;;;;1.60;1.20;;;6.10;98.20;;;;;;5052352;28;20464;-73
2023/02/14 03:12:45;;;;;;;1.60;1.40;;;6.10;98.20;;;;;;5056828;28;20505;-74
2023/02/14 03:15:21;;;;;;;1.60;1.40;;;6.10;98.20;;;;;;5060420;28;20826;-74
2023/02/14 03:20:51;;;;;;;1.60;1.40;;;6.10;98.20;;;;;;5064769;28;20460;-75
2023/02/14 03:23:23;;;;;;;1.60;1.30;;;6.00;98.20;;;;;;5033312;28;20476;-74
2023/02/14 03:26:02;;;;;;;1.60;1.30;;;6.00;98.20;;;;;;5056149;28;20446;-73
2023/02/14 03:28:37;;;;;;;1.60;1.50;;;6.00;98.20;;;;;;5046595;28;20681;-74
2023/02/14 03:31:12;;;;;;;1.60;1.30;;;6.00;98.20;;;;;;5056792;28;20576;-74
2023/02/14 03:33:49;;;;;;;1.60;1.27;;;6.00;98.20;;;;;;5051488;28;20478;-74
2023/02/14 03:36:20;;;;;;;1.60;1.30;;;6.00;98.20;;;;;;5051847;28;20561;-74
2023/02/14 03:38:54;;;;;;;1.57;1.30;;;6.00;98.20;;;;;;5068957;28;20504;-74
2023/02/14 03:41:26;;;;;;;1.60;1.30;;;6.00;98.20;;;;;;5052771;28;20477;-74
2023/02/14 03:43:57;;;;;;;1.60;1.40;;;5.90;98.20;;;;;;5056955;28;21009;-74
2023/02/14 03:46:29;;;;;;;1.60;1.30;;;5.90;98.20;;;;;;5045843;28;20477;-74
2023/02/14 03:48:59;;;;;;;1.60;1.40;;;5.90;98.20;;;;;;5051822;28;20577;-74
2023/02/14 03:51:33;;;;;;;1.60;1.30;;;5.90;98.20;;;;;;5048396;28;20576;-73
2023/02/14 03:54:01;;;;;;;1.60;1.40;;;5.80;98.20;;;;;;5053254;28;20469;-74
2023/02/14 03:56:36;;;;;;;1.60;1.40;;;5.80;98.20;;;;;;5041497;28;20474;-74
2023/02/14 03:59:09;;;;;;;1.50;1.30;;;5.80;98.20;;;;;;5058043;28;20564;-74
2023/02/14 04:01:40;;;;;;;2.50;2.27;;;5.80;98.20;;;;;;5046445;28;20878;-74
2023/02/14 04:04:08;;;;;;;1.60;1.30;;;5.70;98.20;;;;;;5051157;28;20965;-74
2023/02/14 04:06:36;;;;;;;1.60;1.40;;;5.70;98.20;;;;;;5040710;28;20703;-73
2023/02/14 04:09:03;;;;;;;1.60;1.40;;;5.70;98.20;;;;;;5058063;28;20549;-73
2023/02/14 04:11:34;;;;;;;1.60;1.40;;;5.70;98.20;;;;;;5042167;28;20645;-74
2023/02/14 04:14:02;;;;;;;1.80;1.70;;;5.70;98.20;;;;;;5058463;28;20466;-74
2023/02/14 04:16:29;;;;;;;1.60;1.40;;;5.70;98.20;;;;;;5040152;28;20492;-74
2023/02/14 04:21:40;;;;;;;1.60;1.30;;;5.70;98.20;;;;;;5047935;28;20477;-74
2023/02/14 04:24:07;;;;;;;1.60;1.40;;;5.60;98.20;;;;;;5056060;28;20549;-74
2023/02/14 04:26:36;;;;;;;1.60;1.40;;;5.60;98.20;;;;;;5038620;28;20482;-74
2023/02/14 04:29:03;;;;;;;1.60;1.20;;;5.60;98.20;;;;;;5058981;28;20745;-74
2023/02/14 04:31:30;;;;;;;3.00;2.80;;;5.60;98.20;;;;;;5040727;28;20478;-73
2023/02/14 04:33:57;;;;;;;1.60;1.30;;;5.60;98.20;;;;;;5053927;28;20578;-74
2023/02/14 04:36:24;;;;;;;1.60;1.30;;;5.60;98.20;;;;;;5044273;28;20559;-74
2023/02/14 04:38:51;;;;;;;1.60;1.40;;;5.60;98.20;;;;;;5046887;28;20539;-74
2023/02/14 04:41:19;;;;;;;1.60;1.40;;;5.50;98.20;;;;;;5046445;28;20475;-74
2023/02/14 04:43:48;;;;;;;1.60;1.30;;;5.50;98.20;;;;;;5053537;28;20482;-74
2023/02/14 04:46:14;;;;;;;1.60;1.47;;;5.50;98.20;;;;;;5046296;28;20978;-74
2023/02/14 04:48:41;;;;;;;1.60;1.40;;;5.60;98.20;;;;;;5049151;28;20469;-74
2023/02/14 04:51:08;;;;;;;1.60;1.40;;;5.60;98.20;;;;;;5045691;28;20917;-75
2023/02/14 04:53:39;;;;;;;1.60;1.37;;;5.60;98.20;;;;;;5047953;28;20562;-74
2023/02/14 04:56:06;;;;;;;1.60;1.40;;;5.60;98.20;;;;;;5039291;28;20474;-73
2023/02/14 04:58:33;;;;;;;1.70;1.60;;;5.60;98.20;;;;;;5055469;28;20807;-73
2023/02/14 05:01:02;;;;;;;1.60;1.40;;;5.60;98.20;;;;;;5046346;28;20486;-74
2023/02/14 05:03:29;;;;;;;1.57;1.30;;;5.60;98.20;;;;;;5056196;28;20507;-73
2023/02/14 05:05:56;;;;;;;1.60;1.43;;;5.60;98.20;;;;;;5047792;28;20465;-75
2023/02/14 05:08:23;;;;;;;1.60;1.40;;;5.60;98.20;;;;;;5053885;28;20465;-73
2023/02/14 05:10:50;;;;;;;1.60;1.50;;;5.60;98.20;;;;;;5043901;28;20466;-74
2023/02/14 05:13:17;;;;;;;1.60;1.40;;;5.50;98.20;;;;;;5053311;28;20497;-74
2023/02/14 05:15:45;;;;;;;1.57;1.30;;;5.50;98.20;;;;;;5055157;28;20462;-73
2023/02/14 05:18:13;;;;;;;1.60;1.30;;;5.40;98.20;;;;;;5031370;28;20491;-74
2023/02/14 05:20:41;;;;;;;1.60;1.30;;;5.40;98.20;;;;;;5055320;28;20457;-73
2023/02/14 05:23:12;;;;;;;5.00;4.13;;;5.40;98.20;;;;;;5054275;28;20565;-73
2023/02/14 05:25:39;;;;;;;1.60;1.40;;;5.30;98.20;;;;;;5063184;28;20469;-73
2023/02/14 05:28:06;;;;;;;1.60;1.30;;;5.30;98.20;;;;;;5044791;28;20474;-73
2023/02/14 05:30:34;;;;;;;1.60;1.30;;;5.30;98.20;;;;;;5057618;28;20909;-74
2023/02/14 05:33:01;;;;;;;1.60;1.20;;;5.20;98.20;;;;;;5046245;28;20559;-74
2023/02/14 06:03:16;;;;;;;1.70;1.60;;;5.30;98.20;;;;;;5052661;28;20491;-73
2023/02/14 06:05:43;;;;;;;1.60;1.50;;;5.30;98.20;;;;;;5049150;28;20496;-73
2023/02/14 06:08:11;;;;;;;1.60;1.30;;;5.30;98.20;;;;;;5047912;28;20474;-73
2023/02/14 06:10:38;;;;;;;2.20;1.97;;;5.30;98.20;;;;;;5056400;28;20465;-74
2023/02/14 06:13:07;;;;;;;1.60;1.40;;;5.20;98.20;;;;;;5044313;28;20558;-74
2023/02/14 06:15:35;;;;;;;1.60;1.30;;;5.20;98.20;;;;;;5058046;28;20985;-74
2023/02/14 06:18:02;;;;;;;1.60;1.30;;;5.20;98.20;;;;;;5041617;28;20518;-74
2023/02/14 06:20:31;;;;;;;1.60;1.33;;;5.20;98.20;;;;;;5060755;28;20464;-73
2023/02/14 06:23:02;;;;;;;1.60;1.30;;;5.20;98.20;;;;;;5047343;28;20575;-73
2023/02/14 06:25:29;;;;;;;1.60;1.33;;;5.20;98.20;;;;;;5057205;28;20458;-73
2023/02/14 06:27:57;;;;;;;1.60;1.30;;;5.20;98.20;;;;;;5047587;28;20516;-72
2023/02/14 06:30:25;;;;;;;1.60;1.40;;;5.20;98.20;;;;;;5066278;28;20457;-73
2023/02/14 06:32:52;;;;;;;1.60;1.30;;;5.20;98.20;;;;;;5075363;22;21051;-78
2023/02/14 06:35:20;;;;;;;1.60;1.40;;;5.10;98.20;;;;;;5075656;28;20463;-78
2023/02/14 06:37:48;;;;;;;1.57;1.30;;;5.10;98.20;;;;;;5065436;28;20826;-77
2023/02/14 06:40:15;;;;;;;1.60;1.30;;;5.10;98.20;;;;;;5087601;28;20515;-75
2023/02/14 06:42:43;;;;;;;1.57;1.33;;;5.10;98.20;;;;;;5061884;28;20488;-77
2023/02/14 06:45:10;;;;;;;1.60;1.30;;;5.10;98.20;;;;;;5067186;28;20549;-76
2023/02/14 06:47:38;;;;;;;1.63;1.53;;;5.10;98.20;;;;;;5049446;28;20521;-77
2023/02/14 06:50:06;;;;;;;1.60;1.23;;;5.10;98.20;;;;;;5070503;28;20526;-78
2023/02/14 06:52:34;;;;;;;2.43;2.23;;;5.10;98.20;;;;;;5047851;28;20489;-78
2023/02/14 06:55:02;;;;;;;3.00;2.80;;;5.10;98.20;;;;;;5069486;28;20464;-76
2023/02/14 06:57:30;;;;;;;1.60;1.30;;;5.10;98.20;;;;;;5053265;28;20477;-76
2023/02/14 06:59:57;;;;;;;1.60;1.30;;;5.00;98.20;;;;;;5065855;28;20462;-77
2023/02/14 07:02:24;;;;;;;1.60;1.40;;;5.10;98.20;;;;;;5054091;28;20493;-76
2023/02/14 07:04:51;;;;;;;1.60;1.40;;;5.00;98.20;;;;;;5068005;28;20546;-76
2023/02/14 07:07:18;;;;;;;1.60;1.50;;;5.00;98.20;;;;;;5056830;28;20838;-75
2023/02/14 07:09:51;;;;;;;1.60;1.50;;;5.00;98.20;;;;;;5069655;28;21012;-76
2023/02/14 07:12:20;;;;;;;1.60;1.50;;;5.00;98.20;;;;;;5058167;28;20479;-76
2023/02/14 07:14:47;;;;;;;1.60;1.30;;;5.00;98.20;;;;;;5072266;28;20473;-77
2023/02/14 07:17:14;;;;;;;1.80;1.70;;;5.00;98.20;;;;;;5057195;28;20516;-76
2023/02/14 07:19:41;;;;;;;1.60;1.40;;;5.10;98.20;;;;;;5067784;28;20457;-75
2023/02/14 07:22:09;;;;;;;1.80;1.70;;;5.10;98.20;;;;;;5059497;28;21008;-75
2023/02/14 07:24:36;;;;;;;1.60;1.30;;;5.10;98.20;;;;;;5071181;28;20468;-78
2023/02/14 07:27:03;;;;;;;1.60;1.30;;;5.10;98.20;;;;;;5058235;28;20543;-77
2023/02/14 07:29:33;;;;;;;3.73;3.53;;;5.20;98.20;;;;;;5065120;28;20465;-75
2023/02/14 07:32:00;;;;;;;8.93;4.00;;;5.20;98.20;;;;;;5053846;28;20497;-76
2023/02/14 07:34:27;;;;;;;4.53;3.77;;;5.30;98.20;;;;;;5066404;28;20777;-74
2023/02/14 07:36:54;;;;;;;1.60;1.40;;;5.30;98.20;;;;;;5048717;28;20544;-75
2023/02/14 07:39:21;;;;;;;1.60;1.30;;;5.40;98.20;;;;;;5065643;28;20457;-75
2023/02/14 07:41:49;;;;;;;1.60;1.50;;;5.40;98.20;;;;;;5055848;28;20517;-75
2023/02/14 07:44:16;;;;;;;1.60;1.40;;;5.40;98.20;;;;;;5063617;28;20454;-76
2023/02/14 07:46:44;;;;;;;1.60;1.30;;;5.50;98.20;;;;;;5051094;28;20490;-75
2023/02/14 07:49:11;;;;;;;1.60;1.30;;;5.50;98.20;;;;;;5055980;28;20752;-74
2023/02/14 07:51:38;;;;;;;1.60;1.40;;;5.60;98.20;;;;;;5056231;28;20494;-75
2023/02/14 07:54:05;;;;;;;1.60;1.20;;;5.60;98.20;;;;;;5057442;28;20999;-76
2023/02/14 07:56:33;;;;;;;2.70;2.50;;;5.60;98.20;;;;;;5048977;28;20487;-76
2023/02/14 07:59:01;;;;;;;3.67;3.47;;;5.70;98.20;;;;;;5064383;28;20772;-75
2023/02/14 08:01:28;;;;;;;1.60;1.20;;;5.80;98.20;;;;;;5054717;28;20516;-75
2023/02/14 08:03:56;;;;;;;1.60;1.30;;;5.90;98.20;;;;;;5067192;28;20469;-77
2023/02/14 08:06:24;;;;;;;1.60;1.40;;;6.00;98.20;;;;;;5052124;28;20486;-77
2023/02/14 08:08:52;;;;;;;1.60;1.40;;;6.10;98.20;;;;;;5061107;28;20497;-76
2023/02/14 08:14:00;;;;;;;1.70;1.30;;;6.30;98.20;;;;;;5063397;28;20461;-76
2023/02/14 08:16:27;;;;;;;1.60;1.40;;;6.40;98.20;;;;;;5055909;28;20483;-76
2023/02/14 08:18:55;;;;;;;1.60;1.37;;;6.50;98.20;;;;;;5064541;28;20589;-76
2023/02/14 08:21:22;;;;;;;1.60;1.40;;;6.60;98.20;;;;;;5057671;28;20631;-75
2023/02/14 08:23:49;;;;;;;1.60;1.30;;;6.70;98.20;;;;;;5059264;28;21033;-76
2023/02/14 08:26:17;;;;;;;1.60;1.30;;;6.80;98.20;;;;;;5053246;28;20849;-75
2023/02/14 08:28:44;;;;;;;1.60;1.40;;;6.80;98.20;;;;;;5069598;28;20460;-76
2023/02/14 08:31:11;;;;;;;1.60;1.30;;;6.90;98.20;;;;;;5060872;28;20563;-79
2023/02/14 08:33:38;;;;;;;1.60;1.37;;;7.00;98.20;;;;;;5064319;28;20457;-76
2023/02/14 08:36:07;;;;;;;1.57;1.20;;;7.10;98.20;;;;;;5054142;28;20462;-76
2023/02/14 08:38:34;;;;;;;1.60;1.30;;;7.20;98.20;;;;;;5066427;28;20486;-77
2023/02/14 08:41:02;;;;;;;1.60;1.40;;;7.30;98.20;;;;;;5055041;28;20497;-77
2023/02/14 08:43:29;;;;;;;1.60;1.33;;;7.40;98.20;;;;;;5066213;28;20461;-75
2023/02/14 08:45:55;;;;;;;1.60;1.30;;;7.60;98.20;;;;;;5052537;28;20950;-75
2023/02/14 08:48:24;;;;;;;1.60;1.30;;;7.70;98.20;;;;;;5059769;28;20457;-75
2023/02/14 08:50:51;;;;;;;1.60;1.40;;;7.70;98.20;;;;;;5056215;28;20958;-75
2023/02/14 08:53:20;;;;;;;1.60;1.20;;;7.80;98.20;;;;;;5059348;28;20858;-75
2023/02/14 08:55:48;;;;;;;1.57;1.20;;;8.00;98.20;;;;;;5060729;28;20461;-75
2023/02/14 08:58:15;;;;;;;1.60;1.20;;;8.00;98.20;;;;;;5057864;28;20504;-76
2023/02/14 09:00:42;;;;;;;3.23;2.83;;;8.20;98.20;;;;;;5066356;28;20515;-75
2023/02/14 09:03:09;;;;;;;1.60;1.20;;;8.30;98.20;;;;;;5044160;28;20478;-76
2023/02/14 09:05:36;;;;;;;1.60;1.20;;;8.30;98.20;;;;;;5063238;28;20555;-75
2023/02/14 09:08:03;;;;;;;1.60;1.30;;;8.40;98.20;;;;;;5051283;28;20473;-75
2023/02/14 09:10:32;;;;;;;1.57;1.20;;;8.50;98.20;;;;;;5060478;28;20457;-74
2023/02/14 09:12:59;;;;;;;3.87;2.37;;;8.60;98.20;;;;;;5056062;28;20489;-75
2023/02/14 09:15:26;;;;;;;1.60;1.20;;;8.70;98.20;;;;;;5064312;28;20860;-76
2023/02/14 09:17:53;;;;;;;1.60;1.20;;;8.80;98.20;;;;;;5052279;28;20477;-76
2023/02/14 09:20:20;;;;;;;1.60;1.20;;;9.00;98.20;;;;;;5062369;28;20516;-77
2023/02/14 09:22:47;;;;;;;2.17;1.97;;;9.10;98.20;;;;;;5054436;28;20481;-77
2023/02/14 09:25:16;;;;;;;1.60;1.20;;;9.10;98.20;;;;;;5061714;28;20561;-75
2023/02/14 09:27:44;;;;;;;1.60;1.20;;;9.10;98.20;;;;;;5056832;28;20511;-78
2023/02/14 09:30:13;;;;;;;1.60;1.13;;;9.10;98.20;;;;;;5061071;28;20839;-77
2023/02/14 09:32:40;;;;;;;1.60;1.20;;;9.20;98.20;;;;;;5052863;28;20505;-77
2023/02/14 09:37:52;;;;;;;4.93;2.50;;;9.40;98.20;;;;;;5053482;28;20482;-75
2023/02/14 09:40:20;;;;;;;1.60;1.20;;;9.60;98.20;;;;;;5067043;28;20462;-77
2023/02/14 09:42:58;;;;;;;1.60;1.50;;;9.60;98.20;;;;;;5052732;28;20572;-76
2023/02/14 09:45:28;;;;;;;1.60;1.20;;;9.70;98.20;;;;;;5064068;28;20466;-75
2023/02/14 09:47:58;;;;;;;1.60;1.40;;;9.90;98.20;;;;;;5051898;28;20535;-74
2023/02/14 09:50:33;;;;;;;1.60;1.20;;;9.90;98.20;;;;;;5060118;28;20465;-75
2023/02/14 09:53:08;;;;;;;1.57;1.10;;;9.90;98.20;;;;;;5055017;28;20684;-76
2023/02/14 09:55:43;;;;;;;1.53;1.10;;;9.90;98.20;;;;;;5063137;28;20464;-76
2023/02/14 09:58:19;;;;;;;1.60;1.20;;;10.00;98.20;;;;;;5046864;28;20659;-75
2023/02/14 10:00:53;;;;;;;1.60;1.10;;;10.00;98.20;;;;;;5063475;28;20467;-76
2023/02/14 10:03:46;;;;;;;3.03;2.07;;;10.10;98.20;;;;;;5039538;28;20469;-75
2023/02/14 10:06:27;;;;;;;1.60;1.30;;;10.20;98.20;;;;;;5051990;28;20556;-74
2023/02/14 10:09:02;;;;;;;1.60;1.10;;;10.40;98.20;;;;;;5068743;28;20571;-77
2023/02/14 10:11:30;;;;;;;1.60;1.20;;;10.60;98.20;;;;;;5060480;28;20480;-76
2023/02/14 10:14:04;;;;;;;1.60;1.20;;;10.60;98.20;;;;;;5068294;28;20511;-75
2023/02/14 10:16:36;;;;;;;1.50;1.10;;;10.70;98.20;;;;;;5059969;28;20504;-76
2023/02/14 10:19:08;;;;;;;1.60;1.17;;;10.80;98.20;;;;;;5068027;28;20490;-75
2023/02/14 10:21:41;;;;;;;1.57;1.10;;;10.90;98.20;;;;;;5051526;28;20504;-75
2023/02/14 10:24:16;;;;;;;1.60;1.20;;;11.10;98.20;;;;;;5067859;28;20978;-74
2023/02/14 10:26:43;;;;;;;1.60;1.20;;;11.10;98.20;;;;;;5054644;28;20575;-74
2023/02/14 10:29:15;;;;;;;1.60;1.20;;;11.10;98.20;;;;;;5061915;28;20541;-74
2023/02/14 10:31:54;;;;;;;1.90;1.40;;;11.20;98.20;;;;;;5057681;28;20485;-76
2023/02/14 10:34:29;;;;;;;1.60;1.30;;;11.30;97.70;;;;;;5066503;28;20464;-75
2023/02/14 10:37:28;;;;;;;1.60;1.20;;;11.30;97.60;;;;;;5055401;28;20539;-74
2023/02/14 10:40:11;;;;;;;1.60;1.10;;;11.40;97.20;;;;;;5066264;28;20453;-77
2023/02/14 10:42:49;;;;;;;1.60;1.10;;;11.40;97.30;;;;;;5053927;28;20721;-77
2023/02/14 10:45:28;;;;;;;1.60;1.30;;;11.50;98.00;;;;;;5066121;28;20532;-76
2023/02/14 10:48:03;;;;;;;1.60;1.10;;;11.50;96.80;;;;;;5056532;28;20477;-74
2023/02/14 10:50:37;;;;;;;1.70;1.60;;;11.60;96.70;;;;;;5064697;28;20453;-74
2023/02/14 10:53:12;;;;;;;1.60;1.10;;;11.60;97.10;;;;;;5053230;28;20755;-76
2023/02/14 10:55:46;;;;;;;1.60;1.30;;;11.70;96.20;;;;;;5061151;28;21103;-76
2023/02/14 10:58:17;;;;;;;1.60;1.10;;;11.90;96.70;;;;;;5041033;28;20482;-74
2023/02/14 11:00:56;;;;;;;1.57;1.10;;;12.00;96.20;;;;;;5060233;28;20465;-76
2023/02/14 11:03:23;;;;;;;1.60;1.27;;;12.10;95.40;;;;;;5037555;28;20553;-74
2023/02/14 11:05:51;;;;;;;3.70;1.77;;;12.20;95.00;;;;;;5051510;28;20473;-74
2023/02/14 11:08:25;;;;;;;1.53;1.00;;;12.10;95.00;;;;;;5064017;28;20464;-76
2023/02/14 11:10:53;;;;;;;1.60;1.10;;;12.20;95.80;;;;;;5060180;28;20720;-75
2023/02/14 11:13:29;;;;;;;1.60;1.20;;;12.30;95.10;;;;;;5064101;28;20465;-77
2023/02/14 11:16:01;;;;;;;1.60;1.10;;;12.40;93.90;;;;;;5053925;28;20457;-76
2023/02/14 11:18:32;;;;;;;1.60;1.20;;;12.40;93.70;;;;;;5067301;28;20920;-75
2023/02/14 11:21:05;;;;;;;1.57;1.10;;;12.50;94.50;;;;;;5054686;28;20468;-75
2023/02/14 11:23:35;;;;;;;1.90;1.47;;;12.70;94.30;;;;;;5074109;28;20465;-76
2023/02/14 11:26:04;;;;;;;1.60;1.00;;;12.90;92.90;;;;;;5057511;28;20472;-75
2023/02/14 11:28:31;;;;;;;1.57;1.00;;;12.80;92.80;;;;;;5063557;28;20583;-75
2023/02/14 11:31:01;;;;;;;1.57;1.10;;;12.80;92.60;;;;;;5051974;28;20508;-75
2023/02/14 11:33:38;;;;;;;2.23;2.03;;;12.80;93.00;;;;;;5056685;28;20477;-76
2023/02/14 11:36:12;;;;;;;1.57;1.10;;;12.90;92.70;;;;;;5058211;28;20556;-76
2023/02/14 11:38:42;;;;;;;3.70;2.60;;;13.10;92.50;;;;;;5061965;28;20952;-76
2023/02/14 11:41:14;;;;;;;1.60;1.10;;;13.20;91.70;;;;;;5060387;28;20480;-75
2023/02/14 11:43:43;;;;;;;1.57;1.00;;;13.40;91.20;;;;;;5063975;28;20457;-76
2023/02/14 11:46:25;;;;;;;1.57;1.00;;;13.50;91.60;;;;;;5057749;28;20656;-75
2023/02/14 11:49:00;;;;;;;1.53;1.00;;;13.70;89.90;;;;;;5062804;28;20731;-75
2023/02/14 11:51:33;;;;;;;1.57;1.00;;;13.90;90.80;;;;;;5056288;28;20487;-75
2023/02/14 11:54:04;;;;;;;1.57;1.17;;;14.20;91.60;;;;;;5067244;28;20545;-75
2023/02/14 11:56:49;;;;;;;1.70;1.33;;;14.40;89.50;;;;;;5058809;28;20477;-76
2023/02/14 11:59:28;;;;;;;2.70;2.50;;;14.60;88.60;;;;;;5062609;28;20495;-74
2023/02/14 12:02:01;;;;;;;1.53;1.00;;;14.70;87.50;;;;;;5050565;28;20473;-76
2023/02/14 12:04:34;;;;;;;1.60;1.00;;;14.90;88.00;;;;;;5065605;28;20462;-75
2023/02/14 12:07:19;;;;;;;1.57;0.97;;;15.00;85.50;;;;;;5052432;28;20485;-77
2023/02/14 12:10:05;;;;;;;1.53;1.00;;;15.00;85.70;;;;;;5065591;28;20456;-75
2023/02/14 12:12:36;;;;;;;1.60;1.10;;;14.90;85.20;;;;;;5054985;28;20585;-74
2023/02/14 12:15:22;;;;;;;1.60;1.10;;;14.80;87.10;;;;;;5045515;28;20457;-75
2023/02/14 12:17:57;;;;;;;2.13;1.93;;;14.90;86.60;;;;;;5049351;28;20480;-76
2023/02/14 12:20:35;;;;;;;1.53;1.00;;;15.00;86.10;;;;;;5059098;28;20468;-76
2023/02/14 12:23:11;;;;;;;1.60;1.00;;;15.10;86.60;;;;;;5053259;28;20511;-75
2023/02/14 12:25:44;;;;;;;1.60;1.20;;;15.10;85.40;;;;;;5067982;28;20465;-75
2023/02/14 12:28:16;;;;;;;1.60;1.10;;;15.10;84.70;;;;;;5052806;28;20484;-74
2023/02/14 12:30:44;;;;;;;1.57;1.00;;;15.10;85.60;;;;;;5064171;28;20811;-75
2023/02/14 12:33:19;;;;;;;1.60;1.10;;;15.10;84.90;;;;;;5049527;28;21083;-76
2023/02/14 12:35:59;;;;;;;1.60;1.00;;;15.20;85.50;;;;;;5059945;28;20837;-75
2023/02/14 12:38:40;;;;;;;1.57;1.00;;;15.30;86.40;;;;;;5034523;28;20505;-76
2023/02/14 12:41:24;;;;;;;1.53;0.90;;;15.40;84.60;;;;;;5054045;28;20472;-76
2023/02/14 12:43:54;;;;;;;1.90;1.47;;;15.40;85.90;;;;;;5061217;28;20523;-75
2023/02/14 12:46:42;;;;;;;1.60;1.00;;;15.40;85.10;;;;;;5054033;28;20488;-75
2023/02/14 12:49:39;;;;;;;1.60;1.00;;;15.60;86.10;;;;;;5064104;28;20485;-75
2023/02/14 12:52:21;;;;;;;3.90;2.27;;;15.50;83.40;;;;;;5050666;28;20765;-74
2023/02/14 12:55:00;;;;;;;1.60;1.00;;;15.40;84.50;;;;;;5063241;28;20472;-75
2023/02/14 12:57:41;;;;;;;1.53;1.00;;;15.30;83.50;;;;;;5047305;28;20526;-74
2023/02/14 13:00:27;;;;;;;1.57;1.00;;;15.10;85.60;;;;;;5062100;28;20496;-75
2023/02/14 13:03:31;;;;;;;1.57;0.90;;;15.30;86.40;;;;;;5047454;28;20937;-76
2023/02/14 13:06:04;;;;;;;1.60;1.10;;;15.60;84.90;;;;;;5045838;28;20846;-74
2023/02/14 13:09:00;;;;;;;1.70;1.47;;;15.80;84.90;;;;;;5058554;28;20623;-74
2023/02/14 13:11:36;;;;;;;1.60;1.00;;;15.70;83.90;;;;;;5053774;28;20511;-74
2023/02/14 13:14:14;;;;;;;1.60;1.00;;;15.80;83.50;;;;;;5056084;28;20524;-73
2023/02/14 13:16:47;;;;;;;1.70;1.43;;;15.50;82.90;;;;;;5052003;28;20500;-74
2023/02/14 13:19:25;;;;;;;2.17;1.97;;;15.40;83.90;;;;;;5058506;28;20488;-75
2023/02/14 13:21:57;;;;;;;1.57;1.00;;;15.30;83.40;;;;;;5050912;28;20609;-74
2023/02/14 13:24:27;;;;;;;1.53;1.00;;;15.10;84.20;;;;;;5063034;28;20458;-73
2023/02/14 13:26:59;;;;;;;1.70;1.43;;;15.20;84.50;;;;;;5047554;28;20546;-73
2023/02/14 13:29:33;;;;;;;1.50;1.00;;;15.20;85.30;;;;;;5060672;28;20501;-74
2023/02/14 13:32:03;;;;;;;1.50;0.97;;;15.30;84.60;;;;;;5050862;28;20492;-74
2023/02/14 13:34:34;;;;;;;1.60;1.00;;;15.20;85.60;;;;;;5064477;28;20453;-74
2023/02/14 13:37:08;;;;;;;1.57;0.90;;;15.20;84.80;;;;;;5053211;28;20481;-75
2023/02/14 13:39:38;;;;;;;1.60;1.13;;;15.10;84.50;;;;;;5060338;28;20489;-75
2023/02/14 13:42:06;;;;;;;1.60;1.00;;;15.10;85.30;;;;;;5060191;28;20971;-75
2023/02/14 13:44:45;;;;;;;1.53;1.00;;;15.00;85.10;;;;;;5068880;28;20461;-76
2023/02/14 13:47:22;;;;;;;1.57;1.00;;;15.00;84.30;;;;;;5054199;28;21051;-76
2023/02/14 13:49:55;;;;;;;5.43;3.20;;;14.90;85.20;;;;;;5066129;28;20457;-76
2023/02/14 13:52:45;;;;;;;1.57;1.00;;;14.90;84.30;;;;;;5056663;28;20485;-75
2023/02/14 13:55:18;;;;;;;1.70;1.40;;;14.80;85.00;;;;;;5066014;28;20454;-76
2023/02/14 13:57:47;;;;;;;1.60;1.00;;;14.80;86.80;;;;;;5051865;28;21049;-74
2023/02/14 14:00:48;;;;;;;1.57;1.10;;;14.80;85.80;;;;;;5066884;28;20760;-75
2023/02/14 14:03:54;;;;;;;1.57;1.00;;;14.80;84.30;;;;;;5064965;28;20563;-73